createdAt,value
2023-03-19T00:01:07.477Z,43.61
2023-03-19T00:03:36.670Z,43.67
2023-03-19T00:06:05.309Z,43.84
2023-03-19T00:08:34.987Z,43.82
2023-03-19T00:11:08.328Z,43.92
2023-03-19T00:13:36.805Z,43.91
2023-03-19T00:16:05.951Z,43.89
2023-03-19T00:18:34.643Z,44.10
2023-03-19T00:21:03.083Z,44.14
2023-03-19T00:23:31.430Z,44.02
2023-03-19T00:26:01.876Z,44.02
2023-03-19T00:28:30.257Z,44.05
2023-03-19T00:30:58.860Z,44.04
2023-03-19T00:33:29.999Z,43.99
2023-03-19T00:35:58.813Z,44.02
2023-03-19T00:38:27.094Z,44.04
2023-03-19T00:40:55.374Z,44.00
2023-03-19T00:43:25.031Z,44.10
2023-03-19T00:45:53.450Z,44.08
2023-03-19T00:48:22.230Z,44.30
2023-03-19T00:50:50.533Z,44.30
2023-03-19T00:53:19.149Z,44.38
2023-03-19T00:55:47.474Z,44.43
2023-03-19T00:58:15.750Z,44.37
2023-03-19T01:00:45.422Z,44.33
2023-03-19T01:03:13.674Z,44.66
2023-03-19T01:05:41.951Z,44.62
2023-03-19T01:08:10.621Z,44.70
2023-03-19T01:10:38.941Z,44.74
2023-03-19T01:13:07.238Z,44.66
2023-03-19T01:15:38.063Z,44.79
2023-03-19T01:18:08.766Z,44.88
2023-03-19T01:20:37.912Z,44.70
2023-03-19T01:23:07.142Z,44.76
2023-03-19T01:25:36.339Z,44.66
2023-03-19T01:28:05.150Z,44.63
2023-03-19T01:30:33.584Z,44.73
2023-03-19T01:33:02.026Z,44.60
2023-03-19T01:35:31.743Z,44.42
2023-03-19T01:38:00.113Z,44.54
2023-03-19T01:40:28.456Z,44.55
2023-03-19T01:42:58.891Z,44.39
2023-03-19T01:45:38.690Z,44.47
2023-03-19T01:48:07.939Z,44.38
2023-03-19T01:50:42.995Z,44.49
2023-03-19T01:53:14.461Z,44.47
2023-03-19T01:55:45.677Z,44.29
2023-03-19T01:58:14.295Z,44.43
2023-03-19T02:00:42.868Z,44.45
2023-03-19T02:03:11.947Z,44.40
2023-03-19T02:05:45.807Z,44.33
2023-03-19T02:08:18.080Z,44.56
2023-03-19T02:10:48.489Z,44.48
2023-03-19T02:13:17.183Z,44.51
2023-03-19T02:15:48.812Z,44.55
2023-03-19T02:18:17.137Z,44.55
2023-03-19T02:20:52.679Z,44.58
2023-03-19T02:23:34.723Z,44.68
2023-03-19T02:26:08.910Z,44.66
2023-03-19T02:28:40.345Z,44.39
2023-03-19T02:31:09.939Z,44.63
2023-03-19T02:33:38.533Z,44.62
2023-03-19T02:36:11.800Z,44.64
2023-03-19T02:38:42.158Z,44.75
2023-03-19T02:41:12.446Z,44.77
2023-03-19T02:43:42.436Z,44.58
2023-03-19T02:46:14.465Z,44.76
2023-03-19T02:48:42.908Z,44.65
2023-03-19T02:51:11.802Z,44.77
2023-03-19T02:53:40.116Z,44.80
2023-03-19T02:56:09.421Z,44.90
2023-03-19T02:58:39.242Z,44.97
2023-03-19T03:01:08.066Z,45.08
2023-03-19T03:03:36.375Z,45.28
2023-03-19T03:06:04.871Z,45.12
2023-03-19T03:08:33.377Z,45.12
2023-03-19T03:11:03.895Z,45.21
2023-03-19T03:13:33.019Z,45.18
2023-03-19T03:16:02.947Z,45.13
2023-03-19T03:18:31.418Z,45.09
2023-03-19T03:21:03.596Z,45.29
2023-03-19T03:23:31.872Z,45.22
2023-03-19T03:26:00.190Z,45.20
2023-03-19T03:28:28.518Z,45.21
2023-03-19T03:31:03.905Z,45.51
2023-03-19T03:33:32.939Z,45.54
2023-03-19T03:36:01.284Z,45.53
2023-03-19T03:38:29.778Z,45.45
2023-03-19T03:40:58.105Z,45.35
2023-03-19T03:43:26.943Z,45.40
2023-03-19T03:45:55.235Z,45.57
2023-03-19T03:48:27.170Z,45.46
2023-03-19T03:50:58.360Z,45.63
2023-03-19T03:53:26.663Z,45.64
2023-03-19T03:55:55.010Z,45.65
2023-03-19T03:58:24.083Z,45.61
2023-03-19T04:00:52.460Z,45.53
2023-03-19T04:03:20.812Z,45.73
2023-03-19T04:05:50.514Z,45.74
2023-03-19T04:08:18.887Z,45.84
2023-03-19T04:10:47.226Z,45.86
2023-03-19T04:13:15.674Z,45.67
2023-03-19T04:15:44.443Z,45.71
2023-03-19T04:18:12.765Z,45.98
2023-03-19T04:20:41.368Z,45.87
2023-03-19T04:23:11.125Z,45.74
2023-03-19T04:25:41.559Z,45.92
2023-03-19T04:28:10.389Z,45.78
2023-03-19T04:30:39.058Z,45.74
2023-03-19T04:33:08.107Z,45.76
2023-03-19T04:35:36.586Z,45.78
2023-03-19T04:38:05.510Z,46.02
2023-03-19T04:40:35.429Z,45.82
2023-03-19T04:43:03.893Z,46.03
2023-03-19T04:45:35.474Z,46.01
2023-03-19T04:48:05.104Z,46.12
2023-03-19T04:50:33.730Z,46.22
2023-03-19T04:53:02.777Z,46.19
2023-03-19T04:55:31.304Z,46.23
2023-03-19T04:58:01.292Z,46.36
2023-03-19T05:00:30.685Z,46.27
2023-03-19T05:02:59.137Z,46.24
2023-03-19T05:05:27.664Z,46.29
2023-03-19T05:07:57.336Z,46.32
2023-03-19T05:10:28.693Z,46.27
2023-03-19T05:12:57.018Z,46.34
2023-03-19T05:15:29.720Z,46.93
2023-03-19T05:17:58.046Z,46.36
2023-03-19T05:20:27.077Z,46.48
2023-03-19T05:22:55.532Z,46.65
2023-03-19T05:25:23.806Z,46.72
2023-03-19T05:27:52.156Z,46.70
2023-03-19T05:30:20.437Z,46.89
2023-03-19T05:32:50.372Z,46.97
2023-03-19T05:35:24.601Z,47.01
2023-03-19T05:37:52.954Z,46.84
2023-03-19T05:40:22.221Z,47.17
2023-03-19T05:42:51.259Z,47.21
2023-03-19T05:45:19.833Z,47.04
2023-03-19T05:47:50.304Z,47.11
2023-03-19T05:50:19.295Z,46.86
2023-03-19T05:52:47.687Z,47.32
2023-03-19T05:55:20.002Z,47.35
2023-03-19T05:57:51.567Z,47.19
2023-03-19T06:00:21.390Z,47.26
2023-03-19T06:02:51.642Z,47.29
2023-03-19T06:05:20.128Z,47.44
2023-03-19T06:07:51.068Z,47.50
2023-03-19T06:10:19.544Z,47.58
2023-03-19T06:12:47.824Z,47.75
2023-03-19T06:15:17.008Z,47.76
2023-03-19T06:17:45.752Z,48.06
2023-03-19T06:20:15.784Z,48.21
2023-03-19T06:22:45.332Z,48.07
2023-03-19T06:25:13.696Z,48.38
2023-03-19T06:27:42.030Z,48.50
2023-03-19T06:30:12.252Z,48.62
2023-03-19T06:32:40.638Z,48.80
2023-03-19T06:35:10.330Z,49.07
2023-03-19T06:37:43.394Z,49.18
2023-03-19T06:40:13.136Z,49.38
2023-03-19T06:42:42.196Z,49.47
2023-03-19T06:45:11.184Z,49.60
2023-03-19T06:47:41.983Z,49.72
2023-03-19T06:50:12.192Z,49.79
2023-03-19T06:52:42.529Z,49.87
2023-03-19T06:55:11.703Z,50.09
2023-03-19T06:57:40.373Z,50.13
2023-03-19T07:00:11.688Z,50.41
2023-03-19T07:02:40.133Z,50.48
2023-03-19T07:05:09.224Z,50.76
2023-03-19T07:07:37.646Z,50.82
2023-03-19T07:10:08.745Z,50.73
2023-03-19T07:12:37.074Z,50.72
2023-03-19T07:15:06.682Z,50.62
2023-03-19T07:17:34.965Z,50.72
2023-03-19T07:20:09.900Z,50.64
2023-03-19T07:22:38.155Z,50.77
2023-03-19T07:25:09.252Z,50.80
2023-03-19T07:27:39.698Z,50.81
2023-03-19T07:30:10.123Z,51.04
2023-03-19T07:32:38.865Z,51.00
2023-03-19T07:35:09.508Z,50.89
2023-03-19T07:37:37.966Z,50.72
2023-03-19T07:40:12.149Z,50.65
2023-03-19T07:42:40.632Z,50.46
2023-03-19T07:45:12.551Z,50.37
2023-03-19T07:47:41.111Z,50.31
2023-03-19T07:50:11.063Z,50.31
2023-03-19T07:52:39.516Z,50.33
2023-03-19T07:55:10.558Z,50.11
2023-03-19T07:57:39.052Z,50.11
2023-03-19T08:00:09.333Z,50.09
2023-03-19T08:02:37.778Z,50.09
2023-03-19T08:05:06.866Z,49.91
2023-03-19T08:07:35.249Z,50.08
2023-03-19T08:10:09.784Z,49.85
2023-03-19T08:12:41.187Z,49.89
2023-03-19T08:15:12.279Z,49.66
2023-03-19T08:17:40.807Z,49.43
2023-03-19T08:20:17.734Z,49.53
2023-03-19T08:22:50.329Z,49.69
2023-03-19T08:25:18.955Z,49.66
2023-03-19T08:27:49.228Z,49.67
2023-03-19T08:30:20.730Z,49.59
2023-03-19T08:32:49.365Z,49.58
2023-03-19T08:35:18.077Z,49.91
2023-03-19T08:37:46.596Z,50.31
2023-03-19T08:40:15.295Z,50.18
2023-03-19T08:42:45.205Z,50.11
2023-03-19T08:45:17.381Z,49.87
2023-03-19T08:47:46.585Z,49.82
2023-03-19T08:50:15.034Z,49.94
2023-03-19T08:52:43.411Z,49.74
2023-03-19T08:55:13.936Z,49.85
2023-03-19T08:57:42.244Z,49.80
2023-03-19T09:00:12.531Z,49.73
2023-03-19T09:02:42.173Z,49.47
2023-03-19T09:05:11.024Z,49.36
2023-03-19T09:07:39.382Z,49.43
2023-03-19T09:10:09.199Z,49.41
2023-03-19T09:12:37.524Z,49.35
2023-03-19T09:15:07.712Z,48.83
2023-03-19T09:17:36.153Z,48.78
2023-03-19T09:20:07.537Z,48.72
2023-03-19T09:22:36.102Z,48.74
2023-03-19T09:25:04.971Z,48.57
2023-03-19T09:27:33.274Z,48.42
2023-03-19T09:30:01.653Z,48.06
2023-03-19T09:32:30.132Z,48.25
2023-03-19T09:34:58.536Z,47.94
2023-03-19T09:37:28.246Z,47.51
2023-03-19T09:39:56.588Z,47.20
2023-03-19T09:42:44.418Z,47.07
2023-03-19T09:45:16.543Z,46.89
2023-03-19T09:47:47.209Z,46.91
2023-03-19T09:50:20.204Z,46.67
2023-03-19T09:52:55.153Z,46.44
2023-03-19T09:55:37.578Z,46.68
2023-03-19T09:58:16.114Z,46.33
2023-03-19T10:00:48.332Z,46.28
2023-03-19T10:03:44.383Z,46.43
2023-03-19T10:06:31.907Z,46.27
2023-03-19T10:09:27.623Z,46.07
2023-03-19T10:12:13.015Z,45.95
2023-03-19T10:15:14.407Z,45.73
2023-03-19T10:17:53.466Z,45.70
2023-03-19T10:20:31.698Z,45.71
2023-03-19T10:23:15.246Z,45.58
2023-03-19T10:25:46.411Z,45.51
2023-03-19T10:28:18.770Z,45.68
2023-03-19T10:30:58.152Z,45.58
2023-03-19T10:33:33.965Z,45.53
2023-03-19T10:36:08.234Z,45.47
2023-03-19T10:38:41.958Z,45.37
2023-03-19T10:41:29.167Z,45.11
2023-03-19T10:44:03.265Z,44.40
2023-03-19T10:46:39.463Z,44.74
2023-03-19T10:49:14.015Z,43.73
2023-03-19T10:51:47.906Z,44.02
2023-03-19T10:54:25.822Z,44.11
2023-03-19T10:56:58.164Z,44.14
2023-03-19T10:59:32.947Z,43.96
2023-03-19T11:02:15.112Z,43.87
2023-03-19T11:04:43.487Z,43.78
2023-03-19T11:07:14.656Z,43.49
2023-03-19T11:09:46.491Z,43.71
2023-03-19T11:12:26.479Z,43.67
2023-03-19T11:14:57.950Z,43.76
2023-03-19T11:17:29.530Z,43.60
2023-03-19T11:20:00.682Z,43.68
2023-03-19T11:22:32.202Z,43.50
2023-03-19T11:25:04.095Z,43.31
2023-03-19T11:27:36.222Z,43.23
2023-03-19T11:30:15.049Z,43.06
2023-03-19T11:33:09.374Z,43.11
2023-03-19T11:35:43.306Z,42.66
2023-03-19T11:38:19.657Z,42.92
2023-03-19T11:40:58.276Z,43.23
2023-03-19T11:43:41.278Z,43.03
2023-03-19T11:46:35.950Z,42.82
2023-03-19T11:49:44.246Z,42.53
2023-03-19T11:52:23.528Z,42.34
2023-03-19T11:55:09.962Z,42.38
2023-03-19T11:57:59.396Z,42.43
2023-03-19T12:00:36.723Z,42.30
2023-03-19T12:04:13.194Z,42.43
2023-03-19T12:06:54.440Z,42.42
2023-03-19T12:09:31.202Z,42.50
2023-03-19T12:12:08.802Z,42.23
2023-03-19T12:14:52.957Z,42.54
2023-03-19T12:17:43.884Z,42.29
2023-03-19T12:20:26.923Z,42.34
2023-03-19T12:23:07.793Z,41.80
2023-03-19T12:25:54.339Z,40.83
2023-03-19T12:28:28.549Z,41.24
2023-03-19T12:31:30.119Z,40.81
2023-03-19T12:34:21.016Z,40.68
2023-03-19T12:36:56.330Z,40.03
2023-03-19T12:39:33.944Z,39.61
2023-03-19T12:42:05.358Z,39.61
2023-03-19T12:44:39.444Z,39.56
2023-03-19T12:47:12.807Z,39.33
2023-03-19T12:49:48.803Z,39.43
2023-03-19T12:52:23.748Z,39.52
2023-03-19T12:54:59.754Z,39.96
2023-03-19T12:57:36.774Z,40.11
2023-03-19T13:00:12.464Z,40.04
2023-03-19T13:02:48.639Z,39.45
2023-03-19T13:05:30.758Z,39.70
2023-03-19T13:08:05.267Z,39.45
2023-03-19T13:10:33.890Z,39.78
2023-03-19T13:13:08.784Z,39.63
2023-03-19T13:15:43.375Z,39.37
2023-03-19T13:18:25.196Z,39.31
2023-03-19T13:21:15.937Z,39.11
2023-03-19T13:23:48.217Z,39.68
2023-03-19T13:26:17.851Z,38.98
2023-03-19T13:29:01.701Z,39.71
2023-03-19T13:31:35.152Z,39.37
2023-03-19T13:34:07.717Z,38.96
2023-03-19T13:36:40.335Z,39.06
2023-03-19T13:39:16.650Z,39.02
2023-03-19T13:41:55.332Z,38.43
2023-03-19T13:45:00.045Z,38.61
2023-03-19T13:47:42.301Z,38.99
2023-03-19T13:50:52.151Z,38.92
2023-03-19T13:53:42.557Z,39.12
2023-03-19T13:56:28.663Z,38.10
2023-03-19T13:59:27.797Z,37.79
2023-03-19T14:01:56.445Z,37.45
2023-03-19T14:04:30.823Z,37.77
2023-03-19T14:07:11.593Z,37.75
2023-03-19T14:09:44.177Z,37.68
2023-03-19T14:12:23.739Z,37.71
2023-03-19T14:14:58.005Z,37.62
2023-03-19T14:17:29.870Z,37.49
2023-03-19T14:20:09.015Z,37.80
2023-03-19T14:22:40.734Z,37.32
2023-03-19T14:25:20.442Z,37.11
2023-03-19T14:27:51.111Z,36.94
2023-03-19T14:30:31.086Z,36.93
2023-03-19T14:33:04.481Z,36.41
2023-03-19T14:35:38.076Z,36.43
2023-03-19T14:38:15.547Z,35.91
2023-03-19T14:40:52.148Z,35.58
2023-03-19T14:43:48.289Z,35.67
2023-03-19T14:46:27.934Z,35.85
2023-03-19T14:49:47.178Z,35.78
2023-03-19T14:52:19.293Z,35.18
2023-03-19T14:54:53.489Z,35.47
2023-03-19T14:57:28.152Z,35.07
2023-03-19T14:59:57.726Z,35.54
2023-03-19T15:02:38.188Z,35.38
2023-03-19T15:05:09.881Z,35.56
2023-03-19T15:07:41.150Z,35.48
2023-03-19T15:10:17.657Z,35.22
2023-03-19T15:13:12.963Z,35.70
2023-03-19T15:16:00.856Z,35.73
2023-03-19T15:18:29.672Z,35.65
2023-03-19T15:21:04.229Z,35.64
2023-03-19T15:23:33.238Z,35.94
2023-03-19T15:26:04.422Z,35.65
2023-03-19T15:28:46.009Z,36.00
2023-03-19T15:31:31.349Z,36.05
2023-03-19T15:34:01.798Z,35.93
2023-03-19T15:36:34.276Z,35.88
2023-03-19T15:39:06.874Z,35.97
2023-03-19T15:41:46.086Z,35.91
2023-03-19T15:44:24.877Z,35.81
2023-03-19T15:46:53.748Z,35.99
2023-03-19T15:49:27.520Z,36.12
2023-03-19T15:52:01.129Z,36.02
2023-03-19T15:54:29.773Z,36.00
2023-03-19T15:56:58.684Z,36.21
2023-03-19T15:59:33.062Z,35.92
2023-03-19T16:02:03.749Z,35.98
2023-03-19T16:04:45.682Z,36.41
2023-03-19T16:07:27.017Z,36.65
2023-03-19T16:09:58.332Z,36.95
2023-03-19T16:12:41.107Z,37.08
2023-03-19T16:15:32.687Z,36.86
2023-03-19T16:18:23.226Z,37.03
2023-03-19T16:21:07.101Z,37.51
2023-03-19T16:23:37.397Z,36.88
2023-03-19T16:26:16.837Z,36.92
2023-03-19T16:28:49.266Z,37.35
2023-03-19T16:31:29.887Z,37.50
2023-03-19T16:33:58.368Z,37.32
2023-03-19T16:36:32.313Z,37.46
2023-03-19T16:39:24.946Z,37.47
2023-03-19T16:42:19.275Z,37.46
2023-03-19T16:44:48.905Z,37.44
2023-03-19T16:47:18.789Z,37.39
2023-03-19T16:49:48.492Z,37.30
2023-03-19T16:52:22.269Z,37.57
2023-03-19T16:54:51.824Z,37.65
2023-03-19T16:57:20.547Z,37.65
2023-03-19T16:59:48.895Z,37.53
2023-03-19T17:02:19.828Z,37.47
2023-03-19T17:04:48.451Z,37.29
2023-03-19T17:07:16.791Z,37.53
2023-03-19T17:09:45.095Z,37.32
2023-03-19T17:12:16.649Z,37.55
2023-03-19T17:14:45.153Z,37.46
2023-03-19T17:17:21.943Z,37.52
2023-03-19T17:19:53.716Z,37.63
2023-03-19T17:22:23.320Z,37.81
2023-03-19T17:24:51.750Z,37.69
2023-03-19T17:27:20.230Z,37.88
2023-03-19T17:29:51.288Z,37.85
2023-03-19T17:32:21.660Z,37.99
2023-03-19T17:34:50.067Z,38.19
2023-03-19T17:37:18.403Z,38.19
2023-03-19T17:39:49.668Z,38.55
2023-03-19T17:42:24.740Z,38.61
2023-03-19T17:44:53.331Z,38.92
2023-03-19T17:47:23.643Z,39.45
2023-03-19T17:49:51.930Z,39.21
2023-03-19T17:52:21.252Z,39.61
2023-03-19T17:54:49.552Z,39.79
2023-03-19T17:57:17.932Z,39.87
2023-03-19T17:59:46.228Z,40.00
2023-03-19T18:02:32.727Z,39.82
2023-03-19T18:05:01.259Z,39.92
2023-03-19T18:07:29.533Z,40.04
2023-03-19T18:09:57.814Z,40.07
2023-03-19T18:12:26.071Z,40.31
2023-03-19T18:14:54.378Z,40.45
2023-03-19T18:17:22.783Z,40.46
2023-03-19T18:19:52.487Z,40.59
2023-03-19T18:22:21.636Z,40.66
2023-03-19T18:24:52.777Z,40.72
2023-03-19T18:27:24.112Z,40.86
2023-03-19T18:29:52.481Z,41.03
2023-03-19T18:32:27.605Z,40.83
2023-03-19T18:34:57.437Z,41.09
2023-03-19T18:37:25.754Z,41.20
2023-03-19T18:39:54.128Z,41.10
2023-03-19T18:42:23.537Z,41.13
2023-03-19T18:44:51.897Z,41.26
2023-03-19T18:47:20.351Z,41.11
2023-03-19T18:49:48.711Z,41.40
2023-03-19T18:52:19.656Z,41.45
2023-03-19T18:54:48.128Z,41.48
2023-03-19T18:57:17.804Z,41.62
2023-03-19T18:59:49.421Z,41.63
2023-03-19T19:02:30.523Z,41.53
2023-03-19T19:04:58.800Z,41.68
2023-03-19T19:07:28.495Z,41.57
2023-03-19T19:09:59.843Z,41.76
2023-03-19T19:12:28.584Z,41.84
2023-03-19T19:15:03.180Z,42.11
2023-03-19T19:17:35.207Z,42.07
2023-03-19T19:20:03.496Z,42.15
2023-03-19T19:22:33.232Z,42.30
2023-03-19T19:25:03.505Z,42.45
2023-03-19T19:27:32.028Z,42.58
2023-03-19T19:30:01.478Z,42.56
2023-03-19T19:32:32.341Z,42.50
2023-03-19T19:35:00.687Z,42.74
2023-03-19T19:37:29.063Z,42.87
2023-03-19T19:39:58.702Z,43.03
2023-03-19T19:42:27.805Z,43.24
2023-03-19T19:44:58.876Z,43.23
2023-03-19T19:47:28.267Z,43.57
2023-03-19T19:49:57.394Z,43.73
2023-03-19T19:52:25.762Z,43.72
2023-03-19T19:54:54.076Z,43.80
2023-03-19T19:57:25.239Z,43.99
2023-03-19T19:59:55.372Z,43.90
2023-03-19T20:02:26.648Z,43.85
2023-03-19T20:04:58.495Z,43.96
2023-03-19T20:07:27.160Z,44.14
2023-03-19T20:09:55.430Z,44.10
2023-03-19T20:12:30.592Z,44.02
2023-03-19T20:14:59.790Z,44.04
2023-03-19T20:17:28.416Z,43.97
2023-03-19T20:19:56.799Z,44.18
2023-03-19T20:22:25.090Z,44.00
2023-03-19T20:24:53.385Z,43.96
2023-03-19T20:27:27.364Z,44.01
2023-03-19T20:29:55.643Z,44.15
2023-03-19T20:32:30.028Z,44.02
2023-03-19T20:35:00.528Z,44.13
2023-03-19T20:37:29.365Z,44.05
2023-03-19T20:39:57.873Z,44.15
2023-03-19T20:42:31.457Z,44.11
2023-03-19T20:45:01.493Z,44.22
2023-03-19T20:47:32.969Z,44.06
2023-03-19T20:50:01.961Z,44.14
2023-03-19T20:52:30.949Z,44.31
2023-03-19T20:54:59.325Z,44.38
2023-03-19T20:57:30.751Z,44.43
2023-03-19T21:00:03.376Z,44.28
2023-03-19T21:02:31.748Z,44.40
2023-03-19T21:05:00.099Z,44.48
2023-03-19T21:07:33.606Z,44.61
2023-03-19T21:10:05.444Z,44.41
2023-03-19T21:12:36.140Z,44.38
2023-03-19T21:15:04.791Z,44.55
2023-03-19T21:17:33.193Z,44.49
2023-03-19T21:20:02.151Z,44.79
2023-03-19T21:22:32.566Z,44.77
2023-03-19T21:25:07.069Z,44.84
2023-03-19T21:27:38.282Z,44.95
2023-03-19T21:30:08.545Z,45.10
2023-03-19T21:32:36.881Z,44.93
2023-03-19T21:35:06.629Z,45.13
2023-03-19T21:37:34.882Z,45.27
2023-03-19T21:40:05.653Z,45.47
2023-03-19T21:42:38.013Z,45.55
2023-03-19T21:45:07.774Z,45.76
2023-03-19T21:47:36.151Z,45.84
2023-03-19T21:50:04.478Z,45.78
2023-03-19T21:52:42.800Z,46.10
2023-03-19T21:55:20.831Z,46.29
2023-03-19T21:57:50.685Z,46.30
2023-03-19T22:00:21.526Z,46.39
2023-03-19T22:02:50.815Z,46.41
2023-03-19T22:05:23.393Z,46.48
2023-03-19T22:07:52.627Z,46.76
2023-03-19T22:10:28.186Z,46.60
2023-03-19T22:12:57.913Z,46.96
2023-03-19T22:15:34.940Z,46.87
2023-03-19T22:18:04.420Z,46.77
2023-03-19T22:20:32.895Z,46.90
2023-03-19T22:23:01.225Z,46.92
2023-03-19T22:25:33.089Z,46.97
2023-03-19T22:28:07.511Z,46.75
2023-03-19T22:30:38.853Z,46.84
2023-03-19T22:33:16.125Z,46.74
2023-03-19T22:35:45.465Z,46.88
2023-03-19T22:38:14.054Z,46.71
2023-03-19T22:40:42.735Z,46.71
2023-03-19T22:43:20.210Z,46.69
2023-03-19T22:45:53.929Z,46.87
2023-03-19T22:48:23.072Z,46.92
2023-03-19T22:50:52.235Z,46.96
2023-03-19T22:53:28.012Z,46.90
2023-03-19T22:55:56.844Z,46.99
2023-03-19T22:58:26.872Z,47.19
2023-03-19T23:00:56.188Z,47.18
2023-03-19T23:03:27.025Z,47.22
2023-03-19T23:05:59.125Z,47.29
2023-03-19T23:08:27.774Z,47.38
2023-03-19T23:10:56.546Z,47.56
2023-03-19T23:13:26.442Z,47.49
2023-03-19T23:16:00.884Z,47.62
2023-03-19T23:18:33.353Z,47.65
2023-03-19T23:21:02.765Z,47.70
2023-03-19T23:23:33.636Z,47.77
2023-03-19T23:26:02.442Z,47.84
2023-03-19T23:28:35.337Z,47.83
2023-03-19T23:31:04.250Z,47.87
2023-03-19T23:33:32.621Z,47.80
2023-03-19T23:36:00.901Z,48.17
2023-03-19T23:38:29.758Z,48.05
2023-03-19T23:41:04.009Z,48.23
2023-03-19T23:43:34.107Z,48.43
2023-03-19T23:46:02.824Z,48.50
2023-03-19T23:48:36.451Z,48.67
2023-03-19T23:51:06.213Z,48.56
2023-03-19T23:53:34.815Z,48.76
2023-03-19T23:56:06.262Z,48.70
2023-03-19T23:58:44.070Z,48.76
